Main page
METAR-TAF:

METAR-TAF

Airports :

Luxeuil-les-Bains, France

Luxeuil Air Base

latitude: 47-47N, longitude: 006-21E, elevation: 278 m

Current weather observation

The report was made 47 minutes ago, at 10:00 UTC
Wind 8 kt from the Southwest, varying between South/Southwest and West
Temperature 15°C
Humidity 55%
Pressure 1012 hPa
Visibility 10 km or more
no clouds below 1500 m and no cumulonimbus

METAR: LFSX 231000Z AUTO 23008KT 200V260 CAVOK 15/06 Q1012 NOSIG

Time: 11:47 (10:47 UTC)

Forecast

The report was made 2 hours and 47 minutes ago, at 08:00 UTC
Forecast valid from 23 at 09 UTC to 24 at 09 UTC
Wind 12 kt from the Southwest
Visibility 10 km or more
no clouds below 1500 m and no cumulonimbus
Temporary
from 23 at 19 UTC to 24 at 07 UTC
Wind 4 kt from the East

TAF: LFSX 230800Z 2309/2409 23012KT CAVOK TEMPO 2319/2407 08004KT

Weather observations and forecasts of more than 4000 airports (METAR and TAF reports).

The available stations are represented by yellow and red dots on the map.

Hover mouse over dot to see the name of the station.

Then click to see weather observations and forecasts.

To change the map : click on the green buttons with a black cross to zoom in, on the green button with a dash to zoom out, or on the green arrows for adjacent maps.


METAR-TAF: